Time,TemperatureF,DewpointF,PressureIn,WindDirection,WindDirectionDegrees,WindSpeedMPH,WindSpeedGustMPH,Humidity,HourlyPrecipIn,Conditions,Clouds,dailyrainin,SoftwareType,DateUTC
2013-05-04 00:01:00,56.8,41.3,30.21,South,180,3.0,8.1,56,0.00,CLR,,0.00,WeatherDisplay:10.37,2013-05-04 04:01:00,
2013-05-04 00:02:00,56.8,41.3,30.21,South,180,2.7,3.5,56,0.00,CLR,,0.00,WeatherDisplay:10.37,2013-05-04 04:02:00,
2013-05-04 00:03:00,56.8,41.3,30.22,South,180,3.0,3.6,56,0.00,CLR,,0.00,WeatherDisplay:10.37,2013-05-04 04:03:00,
2013-05-04 00:05:00,56.7,41.1,30.22,South,180,2.0,4.0,56,0.00,CLR,CLR,0.00,WeatherDisplay:10.37,2013-05-04 04:05:00,
2013-05-04 00:07:00,56.5,41.4,30.22,South,180,2.4,2.7,57,0.00,CLR,,0.00,WeatherDisplay:10.37,2013-05-04 04:07:00,
2013-05-04 00:12:00,55.9,41.3,30.22,West,270,3.0,4.6,58,0.00,CLR,,0.00,WeatherDisplay:10.37,2013-05-04 04:12:00,
2013-05-04 00:17:00,55.6,41.5,30.22,ESE,112,0.0,0.0,59,0.00,CLR,,0.00,WeatherDisplay:10.37,2013-05-04 04:17:00,
2013-05-04 00:22:00,55.2,41.1,30.22,ESE,112,1.5,2.7,59,0.00,CLR,,0.00,WeatherDisplay:10.37,2013-05-04 04:22:00,
2013-05-04 00:27:00,54.9,41.3,30.22,WSW,248,3.7,7.8,60,0.00,CLR,,0.00,WeatherDisplay:10.37,2013-05-04 04:27:00,
2013-05-04 00:32:00,55.2,41.1,30.22,SSE,158,3.8,8.1,59,0.00,CLR,,0.00,WeatherDisplay:10.37,2013-05-04 04:32:00,
2013-05-04 00:37:00,55.2,40.7,30.22,ENE,68,6.2,10.4,58,0.00,CLR,,0.00,WeatherDisplay:10.37,2013-05-04 04:37:00,
2013-05-04 00:42:00,55.2,40.7,30.21,SE,135,3.8,5.8,58,0.00,CLR,,0.00,WeatherDisplay:10.37,2013-05-04 04:42:00,
2013-05-04 00:47:00,55.0,40.5,30.21,East,90,9.6,11.5,58,0.00,CLR,,0.00,WeatherDisplay:10.37,2013-05-04 04:47:00,
2013-05-04 00:52:00,55.0,40.5,30.21,South,180,4.2,5.8,58,0.00,CLR,,0.00,WeatherDisplay:10.37,2013-05-04 04:52:00,
2013-05-04 00:57:00,54.9,40.4,30.21,ENE,68,6.5,7.0,58,0.00,CLR,,0.00,WeatherDisplay:10.37,2013-05-04 04:57:00,
2013-05-04 01:02:00,54.9,40.4,30.21,NE,45,6.9,7.0,58,0.00,CLR,,0.00,WeatherDisplay:10.37,2013-05-04 05:02:00,
2013-05-04 01:07:00,54.7,39.8,30.21,South,180,6.6,10.4,57,0.00,CLR,,0.00,WeatherDisplay:10.37,2013-05-04 05:07:00,
2013-05-04 01:12:00,54.7,38.4,30.21,South,180,6.6,11.5,54,0.00,CLR,,0.00,WeatherDisplay:10.37,2013-05-04 05:12:00,
2013-05-04 01:17:00,54.7,37.4,30.21,SSE,158,4.0,9.2,52,0.00,CLR,,0.00,WeatherDisplay:10.37,2013-05-04 05:17:00,
2013-05-04 01:22:00,54.5,37.2,30.21,SSE,158,3.0,6.9,52,0.00,CLR,,0.00,WeatherDisplay:10.37,2013-05-04 05:22:00,
2013-05-04 01:27:00,54.1,36.9,30.21,SSE,158,4.1,9.2,52,0.00,CLR,,0.00,WeatherDisplay:10.37,2013-05-04 05:27:00,
2013-05-04 01:32:00,54.0,35.8,30.21,SW,225,4.5,12.7,50,0.00,CLR,,0.00,WeatherDisplay:10.37,2013-05-04 05:32:00,
2013-05-04 01:37:00,54.0,34.2,30.21,SE,135,7.2,10.4,47,0.00,CLR,,0.00,WeatherDisplay:10.37,2013-05-04 05:37:00,
2013-05-04 01:42:00,54.0,32.6,30.20,NE,45,6.6,9.2,44,0.00,CLR,,0.00,WeatherDisplay:10.37,2013-05-04 05:42:00,
2013-05-04 01:47:00,53.6,31.6,30.20,South,180,2.1,2.7,43,0.00,CLR,,0.00,WeatherDisplay:10.37,2013-05-04 05:47:00,
2013-05-04 01:52:00,53.4,29.7,30.20,ENE,68,6.9,9.2,40,0.00,CLR,,0.00,WeatherDisplay:10.37,2013-05-04 05:52:00,
2013-05-04 01:57:00,53.4,29.7,30.20,South,180,5.0,6.1,40,0.00,CLR,,0.00,WeatherDisplay:10.37,2013-05-04 05:57:00,
2013-05-04 02:02:00,53.2,30.1,30.20,South,180,6.4,8.1,41,0.00,CLR,,0.00,WeatherDisplay:10.37,2013-05-04 06:02:00,
2013-05-04 02:07:00,53.2,30.1,30.20,SSW,202,7.6,9.5,41,0.00,CLR,,0.00,WeatherDisplay:10.37,2013-05-04 06:07:00,
2013-05-04 02:12:00,52.9,30.4,30.20,SE,135,8.2,9.5,42,0.00,CLR,,0.00,WeatherDisplay:10.37,2013-05-04 06:12:00,
2013-05-04 02:17:00,52.5,30.6,30.20,SSE,158,4.3,10.4,43,0.00,CLR,,0.00,WeatherDisplay:10.37,2013-05-04 06:17:00,
2013-05-04 02:22:00,52.5,30.6,30.20,SSE,158,3.6,3.6,43,0.00,CLR,,0.00,WeatherDisplay:10.37,2013-05-04 06:22:00,
2013-05-04 02:27:00,51.8,31.1,30.20,NE,45,7.7,10.4,45,0.00,CLR,,0.00,WeatherDisplay:10.37,2013-05-04 06:27:00,
2013-05-04 02:32:00,51.6,32.0,30.20,ENE,68,6.1,10.4,47,0.00,CLR,,0.00,WeatherDisplay:10.37,2013-05-04 06:32:00,
2013-05-04 02:37:00,51.6,33.6,30.20,SSE,158,4.6,8.1,50,0.00,CLR,,0.00,WeatherDisplay:10.37,2013-05-04 06:37:00,
2013-05-04 02:42:00,51.3,33.8,30.19,ENE,68,5.4,7.0,51,0.00,CLR,,0.00,WeatherDisplay:10.37,2013-05-04 06:42:00,
2013-05-04 02:47:00,51.4,34.3,30.19,SE,135,9.8,10.4,52,0.00,CLR,,0.00,WeatherDisplay:10.37,2013-05-04 06:47:00,
2013-05-04 02:52:00,51.4,34.3,30.19,ENE,68,7.0,7.0,52,0.00,CLR,,0.00,WeatherDisplay:10.37,2013-05-04 06:52:00,
2013-05-04 02:57:00,50.9,34.8,30.19,SE,135,4.3,6.9,54,0.00,CLR,,0.00,WeatherDisplay:10.37,2013-05-04 06:57:00,
2013-05-04 03:02:00,50.9,34.4,30.19,SE,135,3.3,10.4,53,0.00,CLR,,0.00,WeatherDisplay:10.37,2013-05-04 07:02:00,
2013-05-04 03:07:00,50.9,34.4,30.19,SE,135,3.8,12.7,53,0.00,CLR,,0.00,WeatherDisplay:10.37,2013-05-04 07:07:00,
2013-05-04 03:12:00,50.5,34.5,30.19,NE,45,4.1,5.3,54,0.00,CLR,,0.00,WeatherDisplay:10.37,2013-05-04 07:12:00,
2013-05-04 03:17:00,50.4,34.8,30.19,East,90,7.5,8.1,55,0.00,CLR,,0.00,WeatherDisplay:10.37,2013-05-04 07:17:00,
2013-05-04 03:22:00,50.4,34.4,30.19,NNE,22,5.3,6.1,54,0.00,CLR,,0.00,WeatherDisplay:10.37,2013-05-04 07:22:00,
2013-05-04 03:27:00,50.2,34.2,30.18,SSE,158,5.0,10.4,54,0.00,CLR,,0.00,WeatherDisplay:10.37,2013-05-04 07:27:00,
2013-05-04 03:32:00,50.0,34.5,30.18,WNW,292,2.9,4.6,55,0.00,CLR,,0.00,WeatherDisplay:10.37,2013-05-04 07:32:00,
2013-05-04 03:37:00,50.0,33.5,30.18,East,90,7.8,9.5,53,0.00,CLR,,0.00,WeatherDisplay:10.37,2013-05-04 07:37:00,
2013-05-04 03:42:00,50.2,32.8,30.18,SSE,158,5.2,8.1,51,0.00,CLR,,0.00,WeatherDisplay:10.37,2013-05-04 07:42:00,
2013-05-04 03:47:00,49.8,32.9,30.18,East,90,4.8,6.9,52,0.00,CLR,,0.00,WeatherDisplay:10.37,2013-05-04 07:47:00,
2013-05-04 03:52:00,49.5,32.6,30.18,ENE,68,0.6,4.6,52,0.00,CLR,,0.00,WeatherDisplay:10.37,2013-05-04 07:52:00,
2013-05-04 03:57:00,49.5,33.1,30.18,ENE,68,3.6,4.6,53,0.00,CLR,,0.00,WeatherDisplay:10.37,2013-05-04 07:57:00,
2013-05-04 04:02:00,48.9,33.4,30.18,ENE,68,3.6,3.6,55,0.00,CLR,,0.00,WeatherDisplay:10.37,2013-05-04 08:02:00,
2013-05-04 04:07:00,48.4,33.4,30.18,ENE,68,3.6,3.6,56,0.00,CLR,,0.00,WeatherDisplay:10.37,2013-05-04 08:07:00,
2013-05-04 04:12:00,48.2,32.8,30.18,East,90,2.5,4.6,55,0.00,CLR,,0.00,WeatherDisplay:10.37,2013-05-04 08:12:00,
2013-05-04 04:17:00,48.4,32.5,30.18,NE,45,3.0,4.6,54,0.00,CLR,,0.00,WeatherDisplay:10.37,2013-05-04 08:17:00,
2013-05-04 04:22:00,48.2,32.3,30.18,NE,45,3.1,5.8,54,0.00,CLR,,0.00,WeatherDisplay:10.37,2013-05-04 08:22:00,
2013-05-04 04:27:00,48.0,32.6,30.18,NE,45,0.0,0.0,55,0.00,CLR,,0.00,WeatherDisplay:10.37,2013-05-04 08:27:00,
2013-05-04 04:32:00,48.0,32.6,30.18,NE,45,0.0,0.0,55,0.00,CLR,,0.00,WeatherDisplay:10.37,2013-05-04 08:32:00,
2013-05-04 04:37:00,48.0,32.6,30.18,NE,45,0.0,0.0,55,0.00,CLR,,0.00,WeatherDisplay:10.37,2013-05-04 08:37:00,
2013-05-04 04:42:00,48.0,32.6,30.18,NE,45,0.0,0.0,55,0.00,CLR,,0.00,WeatherDisplay:10.37,2013-05-04 08:42:00,
2013-05-04 04:47:00,48.0,32.6,30.18,NE,45,0.0,0.0,55,0.00,CLR,,0.00,WeatherDisplay:10.37,2013-05-04 08:47:00,
2013-05-04 04:52:00,48.0,32.6,30.18,NE,45,0.0,0.0,55,0.00,CLR,,0.00,WeatherDisplay:10.37,2013-05-04 08:52:00,
2013-05-04 04:57:00,48.0,32.6,30.18,NE,45,0.0,0.0,55,0.00,CLR,,0.00,WeatherDisplay:10.37,2013-05-04 08:57:00,
2013-05-04 05:02:00,48.0,32.6,30.18,NE,45,0.0,0.0,55,0.00,CLR,,0.00,WeatherDisplay:10.37,2013-05-04 09:02:00,
2013-05-04 05:07:00,48.0,32.6,30.18,NE,45,0.0,0.0,55,0.00,CLR,,0.00,WeatherDisplay:10.37,2013-05-04 09:07:00,
2013-05-04 05:12:00,48.0,32.6,30.18,NE,45,0.0,0.0,55,0.00,CLR,,0.00,WeatherDisplay:10.37,2013-05-04 09:12:00,
2013-05-04 05:17:00,48.0,32.6,30.18,NE,45,0.0,0.0,55,0.00,CLR,,0.00,WeatherDisplay:10.37,2013-05-04 09:17:00,
2013-05-04 05:22:00,48.0,32.6,30.18,NE,45,0.0,0.0,55,0.00,CLR,,0.00,WeatherDisplay:10.37,2013-05-04 09:22:00,
2013-05-04 05:27:00,48.0,32.6,30.19,NE,45,0.0,0.0,55,0.00,CLR,,0.00,WeatherDisplay:10.37,2013-05-04 09:27:00,
2013-05-04 05:32:00,48.0,32.6,30.19,NE,45,0.0,0.0,55,0.00,CLR,,0.00,WeatherDisplay:10.37,2013-05-04 09:32:00,
2013-05-04 05:37:00,48.0,32.6,30.19,NE,45,0.0,0.0,55,0.00,CLR,,0.00,WeatherDisplay:10.37,2013-05-04 09:37:00,
2013-05-04 05:42:00,48.0,32.6,30.19,NE,45,0.0,0.0,55,0.00,CLR,,0.00,WeatherDisplay:10.37,2013-05-04 09:42:00,
2013-05-04 05:47:00,48.0,32.6,30.19,NE,45,0.0,0.0,55,0.00,CLR,,0.00,WeatherDisplay:10.37,2013-05-04 09:47:00,
2013-05-04 05:52:00,48.0,32.6,30.18,NE,45,0.0,0.0,55,0.00,CLR,,0.00,WeatherDisplay:10.37,2013-05-04 09:52:00,
2013-05-04 05:57:00,48.0,32.6,30.18,NE,45,0.0,0.0,55,0.00,CLR,,0.00,WeatherDisplay:10.37,2013-05-04 09:57:00,
2013-05-04 06:02:00,48.0,32.6,30.19,NE,45,0.0,0.0,55,0.00,CLR,,0.00,WeatherDisplay:10.37,2013-05-04 10:02:00,
2013-05-04 06:07:00,48.0,32.6,30.19,NE,45,0.0,0.0,55,0.00,CLR,,0.00,WeatherDisplay:10.37,2013-05-04 10:07:00,
2013-05-04 06:12:00,48.0,32.6,30.19,NE,45,0.0,0.0,55,0.00,CLR,,0.00,WeatherDisplay:10.37,2013-05-04 10:12:00,
2013-05-04 06:17:00,48.0,32.6,30.19,NE,45,0.0,0.0,55,0.00,CLR,,0.00,WeatherDisplay:10.37,2013-05-04 10:17:00,
2013-05-04 06:22:00,48.0,32.6,30.19,NE,45,0.0,0.0,55,0.00,CLR,,0.00,WeatherDisplay:10.37,2013-05-04 10:22:00,
2013-05-04 06:27:00,48.0,32.6,30.20,NE,45,0.0,0.0,55,0.00,CLR,,0.00,WeatherDisplay:10.37,2013-05-04 10:27:00,
2013-05-04 06:32:00,48.0,32.6,30.20,NE,45,0.0,0.0,55,0.00,CLR,,0.00,WeatherDisplay:10.37,2013-05-04 10:32:00,
2013-05-04 06:37:00,48.0,32.6,30.20,NE,45,0.0,0.0,55,0.00,CLR,,0.00,WeatherDisplay:10.37,2013-05-04 10:37:00,
2013-05-04 06:42:00,48.0,32.6,30.21,NE,45,0.0,0.0,55,0.00,CLR,,0.00,WeatherDisplay:10.37,2013-05-04 10:42:00,
2013-05-04 06:47:00,48.0,32.6,30.21,NE,45,0.0,0.0,55,0.00,CLR,,0.00,WeatherDisplay:10.37,2013-05-04 10:47:00,
2013-05-04 06:52:00,39.4,35.6,30.20,NNW,338,2.7,3.5,86,0.00,CLR,,0.00,WeatherDisplay:10.37,2013-05-04 10:52:00,
2013-05-04 06:57:00,39.9,36.1,30.20,NNW,338,0.0,0.0,86,0.00,CLR,,0.00,WeatherDisplay:10.37,2013-05-04 10:57:00,
2013-05-04 07:02:00,40.3,36.4,30.20,NNW,338,0.5,2.3,86,0.00,BKN,,0.00,WeatherDisplay:10.37,2013-05-04 11:02:00,
2013-05-04 07:07:00,40.8,36.6,30.20,West,270,0.0,0.0,85,0.00,BKN,,0.00,WeatherDisplay:10.37,2013-05-04 11:07:00,
2013-05-04 07:12:00,43.0,37.3,30.20,ENE,68,2.8,3.6,80,0.00,BKN,,0.00,WeatherDisplay:10.37,2013-05-04 11:12:00,
2013-05-04 07:17:00,44.2,36.8,30.20,ENE,68,1.9,2.3,75,0.00,BKN,,0.00,WeatherDisplay:10.37,2013-05-04 11:17:00,
2013-05-04 07:22:00,48.0,36.8,30.20,ENE,68,3.7,4.6,65,0.00,BKN,,0.00,WeatherDisplay:10.37,2013-05-04 11:22:00,
2013-05-04 07:27:00,50.9,35.7,30.20,ESE,112,6.4,11.5,56,0.00,BKN,,0.00,WeatherDisplay:10.37,2013-05-04 11:27:00,
2013-05-04 07:32:00,50.9,36.6,30.20,South,180,0.9,5.3,58,0.00,BKN,,0.00,WeatherDisplay:10.37,2013-05-04 11:32:00,
2013-05-04 07:37:00,51.3,36.6,30.20,ESE,112,4.3,8.1,57,0.00,BKN,,0.00,WeatherDisplay:10.37,2013-05-04 11:37:00,
2013-05-04 07:43:00,51.6,37.3,30.20,ESE,112,6.4,7.0,58,0.00,BKN,,0.00,WeatherDisplay:10.37,2013-05-04 11:43:00,
2013-05-04 07:48:00,52.2,37.4,30.20,SE,135,3.8,8.7,57,0.00,BKN,,0.00,WeatherDisplay:10.37,2013-05-04 11:48:00,
2013-05-04 07:55:00,53.4,38.1,30.20,SE,144,3.0,6.0,56,0.00,BKN,BKN,0.00,WeatherDisplay:10.37,2013-05-04 11:55:00,
2013-05-04 08:01:00,55.6,38.7,30.20,ENE,68,2.7,5.8,53,0.00,BKN,,0.00,WeatherDisplay:10.37,2013-05-04 12:01:00,
2013-05-04 08:06:00,55.6,38.7,30.20,East,90,2.8,5.3,53,0.00,BKN,,0.00,WeatherDisplay:10.37,2013-05-04 12:06:00,
2013-05-04 08:11:00,60.1,38.7,30.20,South,180,6.3,7.0,45,0.00,BKN,,0.00,WeatherDisplay:10.37,2013-05-04 12:11:00,
2013-05-04 08:16:00,60.1,38.7,30.20,NE,45,7.8,8.1,45,0.00,BKN,,0.00,WeatherDisplay:10.37,2013-05-04 12:16:00,
2013-05-04 08:21:00,60.1,38.7,30.20,NE,45,7.8,8.1,45,0.00,BKN,,0.00,WeatherDisplay:10.37,2013-05-04 12:21:00,
2013-05-04 08:26:00,56.5,38.6,30.20,SSE,158,3.8,4.6,51,0.00,BKN,,0.00,WeatherDisplay:10.37,2013-05-04 12:26:00,
2013-05-04 08:31:00,58.1,38.5,30.20,ESE,112,3.1,4.6,48,0.00,BKN,,0.00,WeatherDisplay:10.37,2013-05-04 12:31:00,
2013-05-04 08:36:00,60.8,38.7,30.20,ENE,68,5.2,6.1,44,0.00,BKN,,0.00,WeatherDisplay:10.37,2013-05-04 12:36:00,
2013-05-04 08:41:00,59.4,39.1,30.20,SSE,158,5.1,7.0,47,0.00,BKN,,0.00,WeatherDisplay:10.37,2013-05-04 12:41:00,
2013-05-04 08:46:00,60.3,39.4,30.20,SSE,158,7.0,7.0,46,0.00,BKN,,0.00,WeatherDisplay:10.37,2013-05-04 12:46:00,
2013-05-04 08:51:00,60.3,39.4,30.20,SSE,158,7.0,7.0,46,0.00,BKN,,0.00,WeatherDisplay:10.37,2013-05-04 12:51:00,
2013-05-04 08:56:00,62.8,38.7,30.20,SSE,158,5.0,7.8,41,0.00,BKN,,0.00,WeatherDisplay:10.37,2013-05-04 12:56:00,
2013-05-04 09:01:00,62.8,38.7,30.20,SSE,158,7.8,8.1,41,0.00,BKN,,0.00,WeatherDisplay:10.37,2013-05-04 13:01:00,
2013-05-04 09:05:00,62.8,38.7,30.19,SE,143,7.0,8.0,41,0.00,BKN,BKN,0.00,WeatherDisplay:10.37,2013-05-04 13:05:00,
2013-05-04 09:10:00,62.8,38.7,30.19,ESE,120,7.0,7.0,41,0.00,BKN,BKN,0.00,WeatherDisplay:10.37,2013-05-04 13:10:00,
2013-05-04 09:15:00,62.8,38.7,30.19,ESE,112,7.0,7.0,41,0.00,BKN,,0.00,WeatherDisplay:10.37,2013-05-04 13:15:00,
2013-05-04 09:20:00,62.8,38.7,30.19,ESE,112,7.0,7.0,41,0.00,BKN,,0.00,WeatherDisplay:10.37,2013-05-04 13:20:00,
2013-05-04 09:25:00,62.8,38.7,30.19,ESE,112,7.0,7.0,41,0.00,BKN,,0.00,WeatherDisplay:10.37,2013-05-04 13:25:00,
2013-05-04 09:30:00,62.8,38.7,30.20,ESE,112,7.0,7.0,41,0.00,BKN,,0.00,WeatherDisplay:10.37,2013-05-04 13:30:00,
2013-05-04 09:35:00,62.8,38.7,30.20,ESE,112,7.0,7.0,41,0.00,BKN,,0.00,WeatherDisplay:10.37,2013-05-04 13:35:00,
2013-05-04 09:40:00,62.8,38.7,30.20,ESE,112,7.0,7.0,41,0.00,BKN,,0.00,WeatherDisplay:10.37,2013-05-04 13:40:00,
2013-05-04 09:45:00,60.8,36.9,30.20,NNE,22,5.3,5.8,41,0.00,BKN,,0.00,WeatherDisplay:10.37,2013-05-04 13:45:00,
2013-05-04 09:50:00,61.3,36.8,30.20,WSW,248,5.9,6.1,40,0.00,BKN,,0.00,WeatherDisplay:10.37,2013-05-04 13:50:00,
2013-05-04 09:55:00,61.3,36.1,30.20,WSW,248,6.1,6.1,39,0.00,BKN,,0.00,WeatherDisplay:10.37,2013-05-04 13:55:00,
2013-05-04 10:00:00,61.5,37.6,30.20,ENE,68,6.1,8.1,41,0.00,BKN,,0.00,WeatherDisplay:10.37,2013-05-04 14:00:00,
2013-05-04 10:05:00,60.8,37.5,30.19,South,180,5.0,10.4,42,0.00,BKN,,0.00,WeatherDisplay:10.37,2013-05-04 14:05:00,
2013-05-04 10:10:00,61.0,37.1,30.19,SSW,202,5.7,6.9,41,0.00,BKN,,0.00,WeatherDisplay:10.37,2013-05-04 14:10:00,
2013-05-04 10:15:00,61.5,36.9,30.20,ESE,112,10.2,12.9,40,0.00,BKN,,0.00,WeatherDisplay:10.37,2013-05-04 14:15:00,
2013-05-04 10:20:00,61.3,36.8,30.20,South,180,5.8,6.9,40,0.00,BKN,,0.00,WeatherDisplay:10.37,2013-05-04 14:20:00,
2013-05-04 10:25:00,61.5,37.6,30.20,SSE,158,5.1,5.8,41,0.00,BKN,,0.00,WeatherDisplay:10.37,2013-05-04 14:25:00,
2013-05-04 10:30:00,61.9,38.5,30.20,SE,135,3.6,4.6,42,0.00,BKN,,0.00,WeatherDisplay:10.37,2013-05-04 14:30:00,
2013-05-04 10:35:00,61.3,37.4,30.20,West,270,7.6,10.4,41,0.00,BKN,,0.00,WeatherDisplay:10.37,2013-05-04 14:35:00,
2013-05-04 10:40:00,62.4,37.7,30.20,SSE,158,5.5,9.5,40,0.00,BKN,,0.00,WeatherDisplay:10.37,2013-05-04 14:40:00,
2013-05-04 10:45:00,62.8,38.1,30.20,SSW,202,6.1,6.1,40,0.00,BKN,,0.00,WeatherDisplay:10.37,2013-05-04 14:45:00,
2013-05-04 10:50:00,62.8,38.1,30.19,South,180,7.0,7.0,40,0.00,BKN,,0.00,WeatherDisplay:10.37,2013-05-04 14:50:00,
2013-05-04 10:55:00,63.1,39.0,30.19,East,90,8.7,9.2,41,0.00,BKN,,0.00,WeatherDisplay:10.37,2013-05-04 14:55:00,
2013-05-04 11:00:00,63.7,38.3,30.19,NNE,22,10.5,11.5,39,0.00,BKN,,0.00,WeatherDisplay:10.37,2013-05-04 15:00:00,
2013-05-04 11:05:00,65.1,39.5,30.19,SSW,202,3.6,6.9,39,0.00,BKN,,0.00,WeatherDisplay:10.37,2013-05-04 15:05:00,
2013-05-04 11:10:00,64.6,38.4,30.19,South,180,8.8,11.5,38,0.00,BKN,,0.00,WeatherDisplay:10.37,2013-05-04 15:10:00,
2013-05-04 11:15:00,63.9,38.4,30.19,ESE,112,10.7,12.1,39,0.00,BKN,,0.00,WeatherDisplay:10.37,2013-05-04 15:15:00,
2013-05-04 11:20:00,63.9,38.4,30.19,ENE,68,6.1,6.1,39,0.00,BKN,,0.00,WeatherDisplay:10.37,2013-05-04 15:20:00,
2013-05-04 11:25:00,63.9,37.8,30.19,East,90,10.6,11.5,38,0.00,BKN,,0.00,WeatherDisplay:10.37,2013-05-04 15:25:00,
2013-05-04 11:30:00,64.8,37.9,30.19,NNE,22,12.0,18.8,37,0.00,BKN,,0.00,WeatherDisplay:10.37,2013-05-04 15:30:00,
2013-05-04 11:35:00,64.8,38.6,30.19,ESE,112,5.8,6.9,38,0.00,BKN,,0.00,WeatherDisplay:10.37,2013-05-04 15:35:00,
2013-05-04 11:40:00,64.6,36.3,30.19,West,270,9.1,10.4,35,0.00,BKN,,0.00,WeatherDisplay:10.37,2013-05-04 15:40:00,
2013-05-04 11:45:00,64.4,36.8,30.19,East,90,8.0,9.2,36,0.00,BKN,,0.00,WeatherDisplay:10.37,2013-05-04 15:45:00,
2013-05-04 11:50:00,64.2,37.4,30.19,WNW,292,6.0,8.7,37,0.00,BKN,,0.00,WeatherDisplay:10.37,2013-05-04 15:50:00,
2013-05-04 11:55:00,64.9,37.3,30.19,SSE,158,4.7,8.1,36,0.00,BKN,,0.00,WeatherDisplay:10.37,2013-05-04 15:55:00,
2013-05-04 12:00:00,65.8,38.1,30.19,South,180,7.5,10.4,36,0.00,BKN,,0.00,WeatherDisplay:10.37,2013-05-04 16:00:00,
2013-05-04 12:05:00,65.3,35.4,30.18,ESE,112,6.4,9.2,33,0.00,BKN,,0.00,WeatherDisplay:10.37,2013-05-04 16:05:00,
2013-05-04 12:10:00,65.5,35.6,30.18,SSW,202,9.0,12.7,33,0.00,BKN,,0.00,WeatherDisplay:10.37,2013-05-04 16:10:00,
2013-05-04 12:15:00,64.9,35.8,30.18,SSW,202,6.1,11.5,34,0.00,BKN,,0.00,WeatherDisplay:10.37,2013-05-04 16:15:00,
2013-05-04 12:20:00,65.7,37.3,30.18,South,180,6.1,6.1,35,0.00,BKN,,0.00,WeatherDisplay:10.37,2013-05-04 16:20:00,
2013-05-04 12:25:00,65.7,37.3,30.18,South,180,6.1,6.1,35,0.00,BKN,,0.00,WeatherDisplay:10.37,2013-05-04 16:25:00,
2013-05-04 12:30:00,67.5,38.1,30.18,SSE,158,6.1,6.1,34,0.00,BKN,,0.00,WeatherDisplay:10.37,2013-05-04 16:30:00,
2013-05-04 12:35:00,66.7,37.4,30.18,SSE,158,10.0,16.1,34,0.00,BKN,,0.00,WeatherDisplay:10.37,2013-05-04 16:35:00,
2013-05-04 12:40:00,66.2,37.7,30.17,South,180,7.1,10.4,35,0.00,BKN,,0.00,WeatherDisplay:10.37,2013-05-04 16:40:00,
2013-05-04 12:45:00,67.1,38.5,30.17,SSW,202,7.1,12.1,35,0.00,BKN,,0.00,WeatherDisplay:10.37,2013-05-04 16:45:00,
2013-05-04 12:50:00,67.8,38.4,30.17,NNE,22,11.2,17.3,34,0.00,BKN,,0.00,WeatherDisplay:10.37,2013-05-04 16:50:00,
2013-05-04 12:55:00,68.7,39.9,30.17,South,180,5.6,11.5,35,0.00,BKN,,0.00,WeatherDisplay:10.37,2013-05-04 16:55:00,
2013-05-04 13:00:00,68.9,40.1,30.17,ESE,112,9.2,11.5,35,0.00,BKN,,0.00,WeatherDisplay:10.37,2013-05-04 17:00:00,
2013-05-04 13:05:00,68.5,37.5,30.17,SE,135,14.6,15.0,32,0.00,BKN,,0.00,WeatherDisplay:10.37,2013-05-04 17:05:00,
2013-05-04 13:10:00,69.4,39.0,30.17,SSE,158,8.7,9.2,33,0.00,BKN,,0.00,WeatherDisplay:10.37,2013-05-04 17:10:00,
2013-05-04 13:15:00,69.8,40.9,30.16,SSW,202,9.9,10.4,35,0.00,BKN,,0.00,WeatherDisplay:10.37,2013-05-04 17:15:00,
2013-05-04 13:20:00,69.1,40.3,30.16,NE,45,9.6,13.8,35,0.00,BKN,,0.00,WeatherDisplay:10.37,2013-05-04 17:20:00,
2013-05-04 13:25:00,70.2,39.7,30.16,East,90,9.5,21.9,33,0.00,BKN,,0.00,WeatherDisplay:10.37,2013-05-04 17:25:00,
2013-05-04 13:30:00,70.2,39.7,30.16,ENE,68,12.1,12.1,33,0.00,BKN,,0.00,WeatherDisplay:10.37,2013-05-04 17:30:00,
2013-05-04 13:35:00,69.1,41.0,30.16,South,180,7.6,12.1,36,0.00,BKN,,0.00,WeatherDisplay:10.37,2013-05-04 17:35:00,
2013-05-04 13:40:00,70.0,40.3,30.15,East,90,13.9,18.8,34,0.00,BKN,,0.00,WeatherDisplay:10.37,2013-05-04 17:40:00,
2013-05-04 13:45:00,69.3,41.2,30.15,South,180,7.4,16.1,36,0.00,BKN,,0.00,WeatherDisplay:10.37,2013-05-04 17:45:00,
2013-05-04 13:50:00,70.0,41.8,30.15,South,180,5.0,7.0,36,0.00,BKN,,0.00,WeatherDisplay:10.37,2013-05-04 17:50:00,
2013-05-04 13:55:00,70.0,41.1,30.15,South,180,9.5,17.3,35,0.00,BKN,,0.00,WeatherDisplay:10.37,2013-05-04 17:55:00,
2013-05-04 14:00:00,69.6,41.5,30.15,South,180,11.4,13.8,36,0.00,BKN,,0.00,WeatherDisplay:10.37,2013-05-04 18:00:00,
2013-05-04 14:05:00,70.3,42.1,30.14,South,180,9.3,13.8,36,0.00,BKN,,0.00,WeatherDisplay:10.37,2013-05-04 18:05:00,
2013-05-04 14:10:00,70.5,41.5,30.14,ESE,112,8.8,12.1,35,0.00,BKN,,0.00,WeatherDisplay:10.37,2013-05-04 18:10:00,
2013-05-04 14:15:00,69.1,41.0,30.14,West,270,6.0,10.4,36,0.00,BKN,,0.00,WeatherDisplay:10.37,2013-05-04 18:15:00,
2013-05-04 14:20:00,70.3,42.1,30.14,South,180,7.8,10.4,36,0.00,BKN,,0.00,WeatherDisplay:10.37,2013-05-04 18:20:00,
2013-05-04 14:25:00,70.0,41.1,30.14,South,180,8.7,10.4,35,0.00,BKN,,0.00,WeatherDisplay:10.37,2013-05-04 18:25:00,
2013-05-04 14:30:00,70.7,41.7,30.14,SSE,158,9.4,15.0,35,0.00,BKN,,0.00,WeatherDisplay:10.37,2013-05-04 18:30:00,
2013-05-04 14:35:00,72.0,43.6,30.14,SSE,158,10.3,11.5,36,0.00,BKN,,0.00,WeatherDisplay:10.37,2013-05-04 18:35:00,
2013-05-04 14:40:00,70.7,41.7,30.13,SSW,202,10.4,12.9,35,0.00,BKN,,0.00,WeatherDisplay:10.37,2013-05-04 18:40:00,
2013-05-04 14:45:00,71.6,41.7,30.13,South,180,11.1,12.9,34,0.00,BKN,,0.00,WeatherDisplay:10.37,2013-05-04 18:45:00,
2013-05-04 14:50:00,71.2,41.4,30.12,SE,135,7.0,7.0,34,0.00,BKN,,0.00,WeatherDisplay:10.37,2013-05-04 18:50:00,
2013-05-04 14:55:00,72.1,43.7,30.12,South,180,5.5,8.1,36,0.00,BKN,,0.00,WeatherDisplay:10.37,2013-05-04 18:55:00,
2013-05-04 15:00:00,72.1,42.9,30.12,WSW,248,5.1,5.8,35,0.00,BKN,,0.00,WeatherDisplay:10.37,2013-05-04 19:00:00,
2013-05-04 15:05:00,72.5,41.7,30.12,East,90,14.6,15.0,33,0.00,BKN,,0.00,WeatherDisplay:10.37,2013-05-04 19:05:00,
2013-05-04 15:10:00,71.4,42.3,30.12,WSW,248,6.5,10.4,35,0.00,BKN,,0.00,WeatherDisplay:10.37,2013-05-04 19:10:00,
2013-05-04 15:15:00,71.1,41.3,30.11,ENE,68,6.9,9.2,34,0.00,BKN,,0.00,WeatherDisplay:10.37,2013-05-04 19:15:00,
2013-05-04 15:20:00,70.0,40.3,30.11,ESE,112,5.8,17.3,34,0.00,BKN,,0.00,WeatherDisplay:10.37,2013-05-04 19:20:00,
2013-05-04 15:25:00,68.7,40.7,30.11,SE,135,7.1,10.4,36,0.00,BKN,,0.00,WeatherDisplay:10.37,2013-05-04 19:25:00,
2013-05-04 15:30:00,68.9,41.5,30.11,South,180,6.8,8.1,37,0.00,BKN,,0.00,WeatherDisplay:10.37,2013-05-04 19:30:00,
2013-05-04 15:35:00,69.1,41.0,30.11,SSE,158,7.2,15.0,36,0.00,BKN,,0.00,WeatherDisplay:10.37,2013-05-04 19:35:00,
2013-05-04 15:40:00,69.3,41.2,30.11,South,180,6.0,9.2,36,0.00,BKN,,0.00,WeatherDisplay:10.37,2013-05-04 19:40:00,
2013-05-04 15:45:00,69.1,41.0,30.11,South,180,8.7,9.2,36,0.00,BKN,,0.00,WeatherDisplay:10.37,2013-05-04 19:45:00,
2013-05-04 15:50:00,69.3,41.2,30.10,ESE,112,5.0,9.5,36,0.00,BKN,,0.00,WeatherDisplay:10.37,2013-05-04 19:50:00,
2013-05-04 15:55:00,68.9,40.8,30.10,SSE,158,5.1,9.2,36,0.00,BKN,,0.00,WeatherDisplay:10.37,2013-05-04 19:55:00,
2013-05-04 16:00:00,69.1,41.7,30.10,South,180,5.3,10.4,37,0.00,BKN,,0.00,WeatherDisplay:10.37,2013-05-04 20:00:00,
2013-05-04 16:05:00,69.6,41.5,30.11,South,180,8.9,12.7,36,0.00,BKN,,0.00,WeatherDisplay:10.37,2013-05-04 20:05:00,
2013-05-04 16:10:00,70.2,41.3,30.11,SE,135,8.2,18.4,35,0.00,BKN,,0.00,WeatherDisplay:10.37,2013-05-04 20:10:00,
2013-05-04 16:15:00,70.5,40.8,30.10,East,90,11.1,13.8,34,0.00,BKN,,0.00,WeatherDisplay:10.37,2013-05-04 20:15:00,
2013-05-04 16:20:00,71.6,41.7,30.10,ESE,112,5.4,14.6,34,0.00,BKN,,0.00,WeatherDisplay:10.37,2013-05-04 20:20:00,
2013-05-04 16:25:00,70.3,40.6,30.10,SSE,158,11.9,19.6,34,0.00,BKN,,0.00,WeatherDisplay:10.37,2013-05-04 20:25:00,
2013-05-04 16:30:00,70.7,41.7,30.10,SSW,202,5.5,10.4,35,0.00,BKN,,0.00,WeatherDisplay:10.37,2013-05-04 20:30:00,
2013-05-04 16:35:00,70.9,42.6,30.10,SSW,202,7.0,7.0,36,0.00,BKN,,0.00,WeatherDisplay:10.37,2013-05-04 20:35:00,
2013-05-04 16:40:00,71.1,42.0,30.10,SE,135,8.0,10.4,35,0.00,BKN,,0.00,WeatherDisplay:10.37,2013-05-04 20:40:00,
2013-05-04 16:45:00,71.4,42.3,30.10,SSW,202,7.4,9.5,35,0.00,BKN,,0.00,WeatherDisplay:10.37,2013-05-04 20:45:00,
2013-05-04 16:50:00,71.2,42.1,30.09,ESE,112,7.4,8.1,35,0.00,BKN,,0.00,WeatherDisplay:10.37,2013-05-04 20:50:00,
2013-05-04 16:55:00,71.2,42.1,30.09,SE,135,5.3,8.1,35,0.00,BKN,,0.00,WeatherDisplay:10.37,2013-05-04 20:55:00,
2013-05-04 17:00:00,71.6,43.2,30.09,South,180,5.3,8.1,36,0.00,BKN,,0.00,WeatherDisplay:10.37,2013-05-04 21:00:00,
2013-05-04 17:05:00,71.1,42.8,30.09,ESE,112,5.2,9.2,36,0.00,BKN,,0.00,WeatherDisplay:10.37,2013-05-04 21:05:00,
2013-05-04 17:10:00,71.1,42.0,30.09,East,90,8.9,10.4,35,0.00,BKN,,0.00,WeatherDisplay:10.37,2013-05-04 21:10:00,
2013-05-04 17:15:00,70.7,42.4,30.09,NE,45,5.1,7.0,36,0.00,BKN,,0.00,WeatherDisplay:10.37,2013-05-04 21:15:00,
2013-05-04 17:20:00,69.8,41.6,30.09,ESE,112,8.0,13.8,36,0.00,BKN,,0.00,WeatherDisplay:10.37,2013-05-04 21:20:00,
2013-05-04 17:25:00,69.1,41.0,30.09,SSE,158,6.5,10.4,36,0.00,BKN,,0.00,WeatherDisplay:10.37,2013-05-04 21:25:00,
2013-05-04 17:30:00,69.4,42.7,30.09,SSE,158,4.3,11.5,38,0.00,BKN,,0.00,WeatherDisplay:10.37,2013-05-04 21:30:00,
2013-05-04 17:35:00,69.4,42.0,30.09,SSE,158,6.4,9.2,37,0.00,BKN,,0.00,WeatherDisplay:10.37,2013-05-04 21:35:00,
2013-05-04 17:40:00,70.0,41.8,30.09,ESE,112,7.7,10.4,36,0.00,BKN,,0.00,WeatherDisplay:10.37,2013-05-04 21:40:00,
2013-05-04 17:45:00,69.4,42.0,30.09,ESE,112,6.2,7.8,37,0.00,BKN,,0.00,WeatherDisplay:10.37,2013-05-04 21:45:00,
2013-05-04 17:50:00,69.4,42.0,30.09,South,180,6.8,9.2,37,0.00,BKN,,0.00,WeatherDisplay:10.37,2013-05-04 21:50:00,
2013-05-04 17:55:00,69.1,41.7,30.09,South,180,6.2,9.5,37,0.00,BKN,,0.00,WeatherDisplay:10.37,2013-05-04 21:55:00,
2013-05-04 18:00:00,68.4,41.1,30.09,ESE,112,4.4,9.2,37,0.00,BKN,,0.00,WeatherDisplay:10.37,2013-05-04 22:00:00,
2013-05-04 18:05:00,68.4,41.8,30.09,ENE,68,2.5,5.8,38,0.00,BKN,,0.00,WeatherDisplay:10.37,2013-05-04 22:05:00,
2013-05-04 18:10:00,68.4,41.8,30.09,South,180,3.0,8.1,38,0.00,BKN,,0.00,WeatherDisplay:10.37,2013-05-04 22:10:00,
2013-05-04 18:15:00,67.8,40.6,30.09,SSW,202,7.5,11.5,37,0.00,BKN,,0.00,WeatherDisplay:10.37,2013-05-04 22:15:00,
2013-05-04 18:20:00,67.5,41.0,30.09,South,180,4.8,11.5,38,0.00,BKN,,0.00,WeatherDisplay:10.37,2013-05-04 22:20:00,
2013-05-04 18:25:00,67.8,41.3,30.09,East,90,5.9,9.5,38,0.00,BKN,,0.00,WeatherDisplay:10.37,2013-05-04 22:25:00,
2013-05-04 18:30:00,67.3,40.8,30.09,South,180,5.9,9.2,38,0.00,BKN,,0.00,WeatherDisplay:10.37,2013-05-04 22:30:00,
2013-05-04 18:35:00,67.3,40.8,30.09,SE,135,3.4,6.1,38,0.00,BKN,,0.00,WeatherDisplay:10.37,2013-05-04 22:35:00,
2013-05-04 18:40:00,66.9,41.1,30.09,SSW,202,3.6,12.7,39,0.00,BKN,,0.00,WeatherDisplay:10.37,2013-05-04 22:40:00,
2013-05-04 18:45:00,66.7,40.9,30.09,SSE,158,2.3,5.8,39,0.00,BKN,,0.00,WeatherDisplay:10.37,2013-05-04 22:45:00,
2013-05-04 18:50:00,66.6,40.9,30.09,SSE,158,3.3,11.5,39,0.00,BKN,,0.00,WeatherDisplay:10.37,2013-05-04 22:50:00,
2013-05-04 18:55:00,66.2,41.2,30.09,SSE,158,1.6,7.0,40,0.00,BKN,,0.00,WeatherDisplay:10.37,2013-05-04 22:55:00,
2013-05-04 19:00:00,66.0,41.0,30.09,ESE,112,3.6,5.8,40,0.00,BKN,,0.00,WeatherDisplay:10.37,2013-05-04 23:00:00,
2013-05-04 19:05:00,65.8,40.8,30.09,ESE,112,4.0,11.5,40,0.00,BKN,,0.00,WeatherDisplay:10.37,2013-05-04 23:05:00,
2013-05-04 19:10:00,65.7,40.7,30.09,ESE,112,5.0,7.0,40,0.00,BKN,,0.00,WeatherDisplay:10.37,2013-05-04 23:10:00,
2013-05-04 19:15:00,65.5,40.5,30.10,SSE,158,6.2,12.7,40,0.00,BKN,,0.00,WeatherDisplay:10.37,2013-05-04 23:15:00,
2013-05-04 19:20:00,65.3,41.0,30.10,East,90,4.3,9.2,41,0.00,BKN,,0.00,WeatherDisplay:10.37,2013-05-04 23:20:00,
2013-05-04 19:25:00,65.1,40.8,30.10,SSW,202,4.0,9.2,41,0.00,BKN,,0.00,WeatherDisplay:10.37,2013-05-04 23:25:00,
2013-05-04 19:30:00,64.6,41.0,30.10,SSW,202,5.5,8.7,42,0.00,BKN,,0.00,WeatherDisplay:10.37,2013-05-04 23:30:00,
2013-05-04 19:35:00,64.6,41.0,30.10,ESE,112,8.6,12.1,42,0.00,BKN,,0.00,WeatherDisplay:10.37,2013-05-04 23:35:00,
2013-05-04 19:40:00,64.2,40.6,30.10,South,180,5.6,8.7,42,0.00,BKN,,0.00,WeatherDisplay:10.37,2013-05-04 23:40:00,
2013-05-04 19:45:00,64.0,41.0,30.10,SSE,158,7.7,11.5,43,0.00,BKN,,0.00,WeatherDisplay:10.37,2013-05-04 23:45:00,
2013-05-04 19:50:00,63.9,41.0,30.10,East,90,6.0,8.7,43,0.00,BKN,,0.00,WeatherDisplay:10.37,2013-05-04 23:50:00,
2013-05-04 19:55:00,63.5,40.6,30.10,ESE,112,4.3,6.1,43,0.00,BKN,,0.00,WeatherDisplay:10.37,2013-05-04 23:55:00,
2013-05-04 20:00:00,63.3,40.4,30.10,SE,135,4.3,5.8,43,0.00,BKN,,0.00,WeatherDisplay:10.37,2013-05-05 00:00:00,
2013-05-04 20:05:00,63.1,40.8,30.11,SE,135,1.4,4.4,44,0.00,SKC,,0.00,WeatherDisplay:10.37,2013-05-05 00:05:00,
2013-05-04 20:10:00,62.8,40.5,30.11,SE,135,1.1,3.5,44,0.00,SKC,,0.00,WeatherDisplay:10.37,2013-05-05 00:10:00,
2013-05-04 20:15:00,62.4,40.8,30.11,SSE,158,2.6,5.8,45,0.00,SKC,,0.00,WeatherDisplay:10.37,2013-05-05 00:15:00,
2013-05-04 20:20:00,62.2,40.6,30.11,ESE,112,3.2,4.4,45,0.00,SKC,,0.00,WeatherDisplay:10.37,2013-05-05 00:20:00,
2013-05-04 20:25:00,61.9,40.9,30.11,SE,135,4.2,6.1,46,0.00,SKC,,0.00,WeatherDisplay:10.37,2013-05-05 00:25:00,
2013-05-04 20:30:00,61.7,40.7,30.12,ESE,112,1.5,5.8,46,0.00,SKC,,0.00,WeatherDisplay:10.37,2013-05-05 00:30:00,
2013-05-04 20:35:00,61.3,40.3,30.12,East,90,0.0,2.3,46,0.00,SKC,,0.00,WeatherDisplay:10.37,2013-05-05 00:35:00,
2013-05-04 20:40:00,61.3,40.9,30.12,NE,45,1.0,3.5,47,0.00,SKC,,0.00,WeatherDisplay:10.37,2013-05-05 00:40:00,
2013-05-04 20:45:00,61.0,40.6,30.12,ESE,112,3.0,5.8,47,0.00,SKC,,0.00,WeatherDisplay:10.37,2013-05-05 00:45:00,
2013-05-04 20:50:00,60.6,40.8,30.12,SSE,158,0.0,4.6,48,0.00,SKC,,0.00,WeatherDisplay:10.37,2013-05-05 00:50:00,
2013-05-04 20:55:00,60.3,41.0,30.12,SSE,158,0.0,2.3,49,0.00,SKC,,0.00,WeatherDisplay:10.37,2013-05-05 00:55:00,
2013-05-04 21:00:00,59.7,40.5,30.12,SSE,158,4.3,5.8,49,0.00,SKC,,0.00,WeatherDisplay:10.37,2013-05-05 01:00:00,
2013-05-04 21:05:00,59.9,40.7,30.13,South,180,2.2,4.6,49,0.00,SKC,,0.00,WeatherDisplay:10.37,2013-05-05 01:05:00,
2013-05-04 21:10:00,60.1,40.3,30.13,SSE,158,0.0,4.6,48,0.00,SKC,,0.00,WeatherDisplay:10.37,2013-05-05 01:10:00,
2013-05-04 21:15:00,59.9,40.1,30.13,SE,135,3.5,5.8,48,0.00,SKC,,0.00,WeatherDisplay:10.37,2013-05-05 01:15:00,
2013-05-04 21:20:00,59.7,40.0,30.13,ESE,112,4.2,5.8,48,0.00,SKC,,0.00,WeatherDisplay:10.37,2013-05-05 01:20:00,
2013-05-04 21:25:00,60.1,40.3,30.13,NNE,22,3.1,5.8,48,0.00,SKC,,0.00,WeatherDisplay:10.37,2013-05-05 01:25:00,
2013-05-04 21:30:00,59.9,40.1,30.13,South,180,3.1,3.6,48,0.00,SKC,,0.00,WeatherDisplay:10.37,2013-05-05 01:30:00,
2013-05-04 21:35:00,59.4,40.7,30.13,ENE,68,0.0,0.0,50,0.00,SKC,,0.00,WeatherDisplay:10.37,2013-05-05 01:35:00,
2013-05-04 21:40:00,59.0,40.4,30.14,ENE,68,0.0,0.0,50,0.00,SKC,,0.00,WeatherDisplay:10.37,2013-05-05 01:40:00,
2013-05-04 21:45:00,58.5,41.4,30.14,ENE,68,0.0,0.0,53,0.00,SKC,,0.00,WeatherDisplay:10.37,2013-05-05 01:45:00,
2013-05-04 21:50:00,58.1,40.1,30.14,East,90,4.1,5.8,51,0.00,SKC,,0.00,WeatherDisplay:10.37,2013-05-05 01:50:00,
2013-05-04 21:55:00,57.9,40.9,30.14,East,90,0.0,0.0,53,0.00,SKC,,0.00,WeatherDisplay:10.37,2013-05-05 01:55:00,
2013-05-04 22:00:00,57.6,41.5,30.14,East,90,0.0,2.3,55,0.00,SKC,,0.00,WeatherDisplay:10.37,2013-05-05 02:00:00,
2013-05-04 22:05:00,57.4,40.9,30.14,East,90,0.0,0.0,54,0.00,SKC,,0.00,WeatherDisplay:10.37,2013-05-05 02:05:00,
2013-05-04 22:10:00,57.2,40.7,30.14,NNE,22,1.2,2.7,54,0.00,SKC,,0.00,WeatherDisplay:10.37,2013-05-05 02:10:00,
2013-05-04 22:15:00,57.4,40.4,30.14,NNE,22,0.0,0.0,53,0.00,SKC,,0.00,WeatherDisplay:10.37,2013-05-05 02:15:00,
2013-05-04 22:20:00,57.4,40.4,30.14,SSE,158,3.6,10.4,53,0.00,SKC,,0.00,WeatherDisplay:10.37,2013-05-05 02:20:00,
2013-05-04 22:25:00,57.6,40.6,30.14,ESE,112,1.0,6.9,53,0.00,SKC,,0.00,WeatherDisplay:10.37,2013-05-05 02:25:00,
2013-05-04 22:30:00,57.6,40.1,30.14,NE,45,2.2,4.6,52,0.00,SKC,,0.00,WeatherDisplay:10.37,2013-05-05 02:30:00,
2013-05-04 22:35:00,57.7,40.2,30.14,NE,45,4.3,4.6,52,0.00,SKC,,0.00,WeatherDisplay:10.37,2013-05-05 02:35:00,
2013-05-04 22:40:00,57.7,40.2,30.15,ESE,112,2.8,5.3,52,0.00,SKC,,0.00,WeatherDisplay:10.37,2013-05-05 02:40:00,
2013-05-04 22:45:00,57.6,40.6,30.15,East,90,0.0,2.3,53,0.00,SKC,,0.00,WeatherDisplay:10.37,2013-05-05 02:45:00,
2013-05-04 22:50:00,57.2,40.2,30.14,East,90,0.0,0.0,53,0.00,SKC,,0.00,WeatherDisplay:10.37,2013-05-05 02:50:00,
2013-05-04 22:55:00,56.8,40.3,30.14,East,90,0.0,0.0,54,0.00,SKC,,0.00,WeatherDisplay:10.37,2013-05-05 02:55:00,
2013-05-04 23:00:00,56.3,40.8,30.14,East,90,0.0,0.0,56,0.00,SKC,,0.00,WeatherDisplay:10.37,2013-05-05 03:00:00,
2013-05-04 23:05:00,55.6,41.0,30.14,East,90,0.0,0.0,58,0.00,SKC,,0.00,WeatherDisplay:10.37,2013-05-05 03:05:00,
2013-05-04 23:10:00,55.0,41.4,30.14,South,180,2.1,3.5,60,0.00,SKC,,0.00,WeatherDisplay:10.37,2013-05-05 03:10:00,
2013-05-04 23:15:00,55.0,41.4,30.14,NNW,338,0.7,2.3,60,0.00,SKC,,0.00,WeatherDisplay:10.37,2013-05-05 03:15:00,
2013-05-04 23:20:00,53.8,41.5,30.14,NNW,338,0.0,0.0,63,0.00,SKC,,0.00,WeatherDisplay:10.37,2013-05-05 03:20:00,
2013-05-04 23:25:00,53.2,41.7,30.14,NNW,338,0.0,0.0,65,0.00,SKC,,0.00,WeatherDisplay:10.37,2013-05-05 03:25:00,
2013-05-04 23:30:00,53.2,41.3,30.14,NNW,338,2.1,3.6,64,0.00,SKC,,0.00,WeatherDisplay:10.37,2013-05-05 03:30:00,
2013-05-04 23:35:00,52.7,41.7,30.14,NNW,338,0.0,0.0,66,0.00,SKC,,0.00,WeatherDisplay:10.37,2013-05-05 03:35:00,
2013-05-04 23:40:00,52.0,41.8,30.15,NNW,338,0.2,2.7,68,0.00,SKC,,0.00,WeatherDisplay:10.37,2013-05-05 03:40:00,
2013-05-04 23:45:00,52.3,41.7,30.15,North,360,0.5,3.6,67,0.00,SKC,,0.00,WeatherDisplay:10.37,2013-05-05 03:45:00,
2013-05-04 23:50:00,51.6,41.8,30.14,North,360,3.2,3.6,69,0.00,SKC,,0.00,WeatherDisplay:10.37,2013-05-05 03:50:00,
2013-05-04 23:55:00,51.6,41.8,30.14,North,360,2.4,2.7,69,0.00,SKC,,0.00,WeatherDisplay:10.37,2013-05-05 03:55:00,